createdAt,value
2018-12-29T00:00:12.517Z,17.70
2018-12-29T00:02:42.508Z,18.53
2018-12-29T00:05:10.970Z,19.13
2018-12-29T00:07:39.440Z,18.47
2018-12-29T00:10:07.913Z,17.23
2018-12-29T00:12:36.358Z,17.80
2018-12-29T00:15:05.359Z,16.47
2018-12-29T00:17:33.803Z,16.40
2018-12-29T00:20:02.274Z,18.43
2018-12-29T00:22:30.716Z,18.33
2018-12-29T00:24:59.180Z,16.60
2018-12-29T00:27:27.628Z,18.30
2018-12-29T00:29:56.141Z,17.93
2018-12-29T00:32:24.581Z,17.67
2018-12-29T00:34:53.051Z,18.20
2018-12-29T00:37:21.513Z,18.63
2018-12-29T00:39:49.987Z,17.00
2018-12-29T00:42:18.435Z,17.27
2018-12-29T00:44:46.889Z,17.70
2018-12-29T00:47:15.337Z,17.87
2018-12-29T00:49:43.837Z,19.43
2018-12-29T00:52:12.285Z,18.10
2018-12-29T00:54:41.031Z,19.37
2018-12-29T00:57:09.492Z,18.10
2018-12-29T00:59:37.932Z,18.40
2018-12-29T01:02:06.400Z,19.13
2018-12-29T01:04:34.843Z,19.00
2018-12-29T01:07:03.296Z,18.97
2018-12-29T01:09:31.745Z,21.10
2018-12-29T01:12:00.331Z,20.63
2018-12-29T01:14:28.788Z,20.43
2018-12-29T01:16:57.258Z,20.77
2018-12-29T01:19:25.726Z,20.43
2018-12-29T01:21:54.170Z,21.33
2018-12-29T01:24:22.633Z,20.07
2018-12-29T01:26:51.102Z,22.10
2018-12-29T01:29:19.547Z,21.30
2018-12-29T01:31:48.007Z,21.17
2018-12-29T01:34:16.449Z,21.87
2018-12-29T01:36:44.918Z,20.57
2018-12-29T01:39:13.372Z,22.63
2018-12-29T01:41:41.840Z,20.80
2018-12-29T01:44:10.286Z,21.30
2018-12-29T01:46:38.733Z,23.17
2018-12-29T01:49:07.170Z,21.83
2018-12-29T01:51:35.651Z,22.83
2018-12-29T01:54:04.089Z,22.50
2018-12-29T01:56:32.539Z,22.03
2018-12-29T01:59:00.996Z,23.07
2018-12-29T02:01:29.469Z,24.23
2018-12-29T02:03:57.937Z,25.00
2018-12-29T02:06:26.419Z,23.27
2018-12-29T02:08:55.137Z,23.73
2018-12-29T02:11:23.634Z,24.30
2018-12-29T02:13:52.071Z,24.57
2018-12-29T02:16:20.529Z,24.60
2018-12-29T02:18:48.973Z,24.03
2018-12-29T02:21:17.427Z,25.33
2018-12-29T02:23:45.898Z,26.20
2018-12-29T02:26:14.385Z,25.10
2018-12-29T02:28:42.851Z,23.40
2018-12-29T02:31:11.279Z,24.33
2018-12-29T02:33:39.735Z,24.23
2018-12-29T02:36:08.179Z,25.23
2018-12-29T02:38:36.629Z,26.47
2018-12-29T02:41:05.065Z,25.37
2018-12-29T02:43:33.525Z,25.20
2018-12-29T02:46:02.031Z,24.23
2018-12-29T02:48:30.495Z,22.13
2018-12-29T02:50:58.963Z,24.63
2018-12-29T02:53:27.444Z,24.37
2018-12-29T02:55:55.893Z,24.97
2018-12-29T02:58:24.342Z,27.50
2018-12-29T03:00:52.798Z,23.80
2018-12-29T03:03:21.254Z,23.80
2018-12-29T03:05:49.691Z,24.57
2018-12-29T03:08:18.169Z,28.73
2018-12-29T03:10:46.623Z,24.57
2018-12-29T03:13:15.137Z,24.10
2018-12-29T03:15:43.584Z,24.57
2018-12-29T03:18:12.051Z,23.73
2018-12-29T03:20:40.506Z,25.43
2018-12-29T03:23:08.967Z,24.50
2018-12-29T03:25:37.447Z,27.47
2018-12-29T03:28:05.891Z,23.90
2018-12-29T03:30:34.355Z,24.57
2018-12-29T03:33:02.828Z,24.17
2018-12-29T03:35:31.256Z,23.90
2018-12-29T03:37:59.703Z,24.17
2018-12-29T03:40:28.526Z,25.87
2018-12-29T03:42:56.962Z,24.17
2018-12-29T03:45:25.416Z,24.97
2018-12-29T03:47:53.859Z,24.10
2018-12-29T03:50:22.312Z,23.23
2018-12-29T03:52:50.754Z,24.60
2018-12-29T03:55:19.230Z,23.80
2018-12-29T03:57:47.666Z,25.67
2018-12-29T04:00:16.116Z,24.23
2018-12-29T04:02:44.558Z,24.63
2018-12-29T04:05:13.030Z,25.23
2018-12-29T04:07:41.476Z,25.70
2018-12-29T04:10:15.054Z,23.33
2018-12-29T04:12:46.184Z,24.43
2018-12-29T04:15:14.678Z,25.80
2018-12-29T04:17:43.102Z,25.00
2018-12-29T04:20:11.555Z,24.13
2018-12-29T04:22:40.012Z,25.23
2018-12-29T04:25:08.464Z,24.67
2018-12-29T04:27:36.922Z,23.47
2018-12-29T04:30:06.109Z,23.53
2018-12-29T04:32:34.555Z,22.33
2018-12-29T04:35:03.013Z,26.53
2018-12-29T04:37:31.487Z,23.67
2018-12-29T04:39:59.958Z,23.57
2018-12-29T04:42:28.418Z,24.23
2018-12-29T04:44:56.874Z,23.63
2018-12-29T04:47:25.319Z,24.27
2018-12-29T04:49:53.801Z,23.07
2018-12-29T04:52:22.238Z,25.33
2018-12-29T04:54:50.705Z,25.23
2018-12-29T04:57:19.158Z,25.63
2018-12-29T04:59:47.611Z,25.73
2018-12-29T05:02:16.059Z,24.77
2018-12-29T05:04:44.501Z,25.93
2018-12-29T05:07:12.971Z,26.40
2018-12-29T05:09:41.413Z,25.80
2018-12-29T05:12:09.861Z,26.70
2018-12-29T05:14:38.309Z,25.73
2018-12-29T05:17:06.797Z,24.87
2018-12-29T05:19:35.241Z,24.60
2018-12-29T05:22:03.695Z,23.40
2018-12-29T05:24:32.149Z,25.30
2018-12-29T05:27:00.659Z,26.67
2018-12-29T05:29:29.103Z,24.93
2018-12-29T05:31:57.579Z,23.27
2018-12-29T05:34:27.682Z,25.03
2018-12-29T05:36:56.165Z,23.43
2018-12-29T05:39:24.610Z,24.17
2018-12-29T05:41:53.076Z,23.90
2018-12-29T05:44:21.522Z,25.50
2018-12-29T05:46:49.994Z,23.67
2018-12-29T05:49:18.448Z,24.90
2018-12-29T05:51:46.885Z,25.50
2018-12-29T05:54:15.362Z,25.10
2018-12-29T05:56:43.831Z,21.47
2018-12-29T05:59:12.282Z,24.70
2018-12-29T06:01:40.916Z,25.70
2018-12-29T06:04:09.358Z,23.13
2018-12-29T06:06:37.804Z,25.63
2018-12-29T06:09:06.878Z,24.47
2018-12-29T06:11:35.344Z,24.60
2018-12-29T06:14:03.775Z,23.33
2018-12-29T06:16:32.254Z,23.23
2018-12-29T06:19:00.709Z,23.47
2018-12-29T06:21:29.164Z,23.50
2018-12-29T06:23:57.642Z,24.17
2018-12-29T06:26:26.098Z,23.20
2018-12-29T06:28:54.547Z,23.67
2018-12-29T06:31:22.998Z,24.30
2018-12-29T06:33:51.511Z,22.43
2018-12-29T06:36:20.001Z,25.50
2018-12-29T06:38:48.473Z,24.70
2018-12-29T06:41:16.918Z,23.93
2018-12-29T06:43:45.397Z,23.43
2018-12-29T06:46:13.839Z,26.20
2018-12-29T06:48:42.327Z,24.07
2018-12-29T06:51:10.777Z,24.57
2018-12-29T06:53:39.282Z,24.17
2018-12-29T06:56:07.728Z,24.07
2018-12-29T06:58:36.184Z,24.93
2018-12-29T07:01:04.642Z,24.33
2018-12-29T07:03:33.104Z,24.77
2018-12-29T07:06:01.562Z,24.97
2018-12-29T07:08:30.039Z,27.10
2018-12-29T07:10:58.492Z,24.73
2018-12-29T07:13:26.958Z,25.37
2018-12-29T07:15:55.413Z,26.40
2018-12-29T07:18:23.887Z,26.27
2018-12-29T07:20:52.342Z,25.93
2018-12-29T07:23:20.857Z,24.00
2018-12-29T07:25:49.311Z,25.80
2018-12-29T07:28:17.796Z,25.97
2018-12-29T07:30:46.242Z,25.93
2018-12-29T07:33:14.690Z,26.30
2018-12-29T07:35:43.148Z,25.50
2018-12-29T07:38:11.589Z,26.17
2018-12-29T07:40:40.056Z,26.03
2018-12-29T07:43:08.488Z,25.50
2018-12-29T07:45:36.955Z,25.97
2018-12-29T07:48:05.391Z,24.97
2018-12-29T07:50:33.835Z,26.37
2018-12-29T07:53:02.323Z,25.40
2018-12-29T07:55:30.815Z,25.60
2018-12-29T07:57:59.266Z,26.20
2018-12-29T08:00:27.717Z,24.67
2018-12-29T08:02:56.170Z,24.27
2018-12-29T08:05:24.625Z,24.90
2018-12-29T08:07:53.093Z,23.53
2018-12-29T08:10:21.566Z,23.83
2018-12-29T08:12:50.011Z,23.70
2018-12-29T08:15:18.508Z,23.53
2018-12-29T08:17:46.919Z,23.70
2018-12-29T08:20:15.383Z,23.80
2018-12-29T08:22:43.837Z,22.80
2018-12-29T08:25:12.416Z,24.50
2018-12-29T08:27:40.865Z,23.37
2018-12-29T08:30:09.336Z,23.30
2018-12-29T08:32:37.794Z,24.03
2018-12-29T08:35:06.597Z,23.13
2018-12-29T08:37:35.067Z,21.13
2018-12-29T08:40:03.729Z,23.33
2018-12-29T08:42:32.220Z,23.40
2018-12-29T08:45:00.709Z,21.27
2018-12-29T08:47:29.150Z,22.37
2018-12-29T08:49:57.615Z,19.93
2018-12-29T08:52:26.065Z,24.70
2018-12-29T08:54:54.513Z,22.37
2018-12-29T08:57:22.957Z,21.03
2018-12-29T08:59:51.441Z,23.87
2018-12-29T09:02:19.882Z,22.00
2018-12-29T09:04:48.321Z,22.33
2018-12-29T09:07:16.831Z,22.53
2018-12-29T09:09:45.279Z,22.77
2018-12-29T09:12:13.743Z,22.97
2018-12-29T09:14:42.187Z,23.90
2018-12-29T09:17:12.273Z,22.53
2018-12-29T09:19:41.003Z,23.43
2018-12-29T09:22:09.475Z,22.27
2018-12-29T09:24:37.915Z,22.50
2018-12-29T09:27:06.387Z,21.47
2018-12-29T09:29:34.838Z,21.43
2018-12-29T09:32:03.287Z,20.10
2018-12-29T09:34:31.741Z,20.73
2018-12-29T09:37:00.198Z,17.17
2018-12-29T09:39:28.643Z,19.17
2018-12-29T09:41:57.103Z,18.33
2018-12-29T09:44:25.568Z,18.80
2018-12-29T09:46:55.014Z,18.90
2018-12-29T09:49:23.552Z,17.77
2018-12-29T09:51:52.031Z,17.93
2018-12-29T09:54:20.473Z,17.97
2018-12-29T09:56:49.001Z,17.53
2018-12-29T09:59:17.463Z,17.90
2018-12-29T10:01:45.936Z,17.10
2018-12-29T10:04:14.382Z,17.63
2018-12-29T10:06:42.827Z,17.23
2018-12-29T10:09:11.287Z,16.90
2018-12-29T10:11:39.781Z,16.70
2018-12-29T10:14:08.223Z,17.37
2018-12-29T10:16:36.683Z,20.20
2018-12-29T10:19:05.126Z,17.67
2018-12-29T10:21:33.601Z,15.73
2018-12-29T10:24:02.035Z,16.80
2018-12-29T10:26:30.520Z,17.57
2018-12-29T10:28:58.972Z,17.93
2018-12-29T10:31:27.423Z,17.73
2018-12-29T10:33:55.870Z,18.13
2018-12-29T10:36:24.321Z,17.83
2018-12-29T10:38:52.810Z,17.33
2018-12-29T10:41:21.246Z,17.27
2018-12-29T10:43:49.714Z,18.67
2018-12-29T10:46:18.145Z,17.83
2018-12-29T10:48:46.697Z,17.53
2018-12-29T10:51:15.152Z,17.97
2018-12-29T10:53:43.610Z,19.63
2018-12-29T10:56:12.070Z,19.60
2018-12-29T10:58:40.544Z,20.03
2018-12-29T11:01:08.995Z,19.20
2018-12-29T11:03:37.465Z,19.13
2018-12-29T11:06:05.923Z,22.73
2018-12-29T11:08:34.391Z,18.43
2018-12-29T11:11:02.881Z,17.93
2018-12-29T11:13:31.395Z,18.03
2018-12-29T11:15:59.853Z,16.57
2018-12-29T11:18:28.310Z,16.87
2018-12-29T11:20:56.760Z,17.23
2018-12-29T11:23:25.241Z,17.23
2018-12-29T11:25:53.682Z,17.87
2018-12-29T11:28:22.167Z,18.07
2018-12-29T11:30:50.611Z,17.30
2018-12-29T11:33:19.067Z,16.90
2018-12-29T11:35:49.143Z,18.60
2018-12-29T11:38:17.607Z,18.97
2018-12-29T11:40:46.081Z,18.87
2018-12-29T11:43:14.564Z,17.40
2018-12-29T11:45:43.018Z,18.60
2018-12-29T11:48:11.494Z,18.63
2018-12-29T11:50:39.946Z,17.80
2018-12-29T11:53:08.406Z,19.07
2018-12-29T11:55:36.977Z,19.20
2018-12-29T11:58:05.467Z,18.67
2018-12-29T12:00:33.911Z,19.77
2018-12-29T12:03:02.348Z,17.77
2018-12-29T12:05:30.805Z,19.17
2018-12-29T12:07:59.255Z,20.93
2018-12-29T12:10:27.733Z,18.93
2018-12-29T12:12:56.197Z,19.20
2018-12-29T12:15:24.668Z,19.33
2018-12-29T12:17:57.408Z,19.07
2018-12-29T12:20:23.339Z,21.67
2018-12-29T12:22:51.816Z,18.20
2018-12-29T12:25:20.258Z,19.20
2018-12-29T12:27:49.012Z,19.00
2018-12-29T12:30:17.470Z,18.70
2018-12-29T12:32:45.937Z,18.80
2018-12-29T12:35:14.418Z,20.43
2018-12-29T12:37:42.861Z,19.83
2018-12-29T12:40:11.315Z,19.30
2018-12-29T12:42:39.775Z,19.00
2018-12-29T12:45:08.239Z,20.33
2018-12-29T12:47:36.708Z,18.77
2018-12-29T12:50:05.534Z,19.40
2018-12-29T12:52:34.380Z,19.57
2018-12-29T12:55:02.829Z,19.83
2018-12-29T12:57:31.271Z,21.77
2018-12-29T13:00:00.263Z,18.67
2018-12-29T13:02:29.008Z,19.50
2018-12-29T13:04:57.467Z,19.07
2018-12-29T13:07:25.917Z,18.87
2018-12-29T13:09:54.377Z,17.60
2018-12-29T13:12:22.839Z,17.73
2018-12-29T13:14:51.570Z,17.57
2018-12-29T13:17:20.029Z,18.73
2018-12-29T13:19:48.488Z,17.60
2018-12-29T13:22:16.962Z,16.67
2018-12-29T13:24:45.407Z,17.97
2018-12-29T13:27:14.071Z,19.17
2018-12-29T13:29:42.544Z,17.10
2018-12-29T13:32:11.013Z,18.87
2018-12-29T13:34:39.460Z,18.50
2018-12-29T13:37:07.916Z,17.27
2018-12-29T13:39:36.786Z,18.17
2018-12-29T13:42:05.301Z,18.97
2018-12-29T13:44:33.734Z,17.60
2018-12-29T13:47:02.209Z,18.00
2018-12-29T13:49:30.689Z,17.20
2018-12-29T13:51:59.330Z,17.87
2018-12-29T13:54:27.767Z,17.57
2018-12-29T13:56:56.215Z,16.60
2018-12-29T13:59:24.668Z,16.67
2018-12-29T14:01:53.120Z,17.43
2018-12-29T14:04:22.382Z,16.00
2018-12-29T14:06:50.855Z,18.10
2018-12-29T14:09:19.310Z,16.43
2018-12-29T14:11:47.781Z,16.43
2018-12-29T14:14:16.231Z,16.47
2018-12-29T14:16:44.694Z,18.13
2018-12-29T14:19:13.166Z,17.17
2018-12-29T14:21:41.640Z,17.00
2018-12-29T14:24:10.078Z,15.70
2018-12-29T14:26:38.572Z,17.67
2018-12-29T14:29:07.015Z,17.27
2018-12-29T14:31:35.531Z,17.00
2018-12-29T14:34:03.974Z,16.67
2018-12-29T14:36:32.432Z,17.07
2018-12-29T14:39:00.898Z,17.83
2018-12-29T14:41:29.393Z,17.47
2018-12-29T14:43:57.848Z,17.73
2018-12-29T14:46:26.317Z,18.10
2018-12-29T14:48:54.754Z,17.77
2018-12-29T14:51:23.195Z,16.97
2018-12-29T14:53:51.665Z,16.87
2018-12-29T14:56:20.125Z,17.47
2018-12-29T14:58:48.592Z,18.87
2018-12-29T15:01:17.033Z,19.33
2018-12-29T15:03:45.507Z,17.30
2018-12-29T15:06:13.939Z,18.00
2018-12-29T15:08:42.400Z,19.00
2018-12-29T15:11:10.852Z,16.87
2018-12-29T15:13:40.859Z,17.97
2018-12-29T15:16:09.297Z,18.33
2018-12-29T15:18:43.732Z,19.10
2018-12-29T15:21:07.969Z,20.03
2018-12-29T15:23:36.432Z,17.93
2018-12-29T15:26:04.873Z,18.87
2018-12-29T15:28:33.350Z,20.70
2018-12-29T15:31:01.792Z,18.47
2018-12-29T15:33:30.762Z,18.87
2018-12-29T15:35:59.209Z,19.10
2018-12-29T15:38:27.690Z,18.40
2018-12-29T15:40:56.404Z,20.20
2018-12-29T15:43:24.876Z,20.17
2018-12-29T15:45:53.325Z,19.00
2018-12-29T15:48:22.064Z,19.20
2018-12-29T15:50:50.533Z,19.43
2018-12-29T15:53:19.008Z,19.00
2018-12-29T15:55:47.465Z,20.23
2018-12-29T15:58:16.197Z,20.37
2018-12-29T16:00:44.696Z,19.10
2018-12-29T16:03:13.326Z,18.57
2018-12-29T16:05:41.798Z,19.60
2018-12-29T16:08:10.259Z,21.10
2018-12-29T16:10:38.725Z,17.93
2018-12-29T16:13:07.186Z,21.73
2018-12-29T16:15:35.663Z,18.07
2018-12-29T16:18:04.093Z,18.30
2018-12-29T16:20:32.653Z,15.63
2018-12-29T16:23:01.102Z,17.43
2018-12-29T16:25:29.568Z,16.87
2018-12-29T16:27:57.999Z,15.93
2018-12-29T16:30:26.840Z,16.90
2018-12-29T16:32:55.682Z,17.17
2018-12-29T16:35:24.146Z,16.73
2018-12-29T16:37:52.602Z,15.37
2018-12-29T16:40:21.085Z,15.77
2018-12-29T16:42:49.523Z,15.63
2018-12-29T16:45:18.212Z,15.33
2018-12-29T16:47:46.647Z,14.83
2018-12-29T16:50:15.121Z,15.10
2018-12-29T16:52:43.566Z,14.83
2018-12-29T16:55:12.431Z,13.60
2018-12-29T16:57:40.884Z,33.33
2018-12-29T17:00:09.475Z,11.83
2018-12-29T17:02:37.932Z,12.07
2018-12-29T17:05:06.653Z,11.20
2018-12-29T17:07:35.123Z,12.13
2018-12-29T17:10:04.035Z,11.57
2018-12-29T17:12:32.519Z,11.87
2018-12-29T17:15:01.451Z,10.43
2018-12-29T17:17:29.914Z,9.93
2018-12-29T17:19:58.388Z,11.67
2018-12-29T17:22:26.873Z,10.40
2018-12-29T17:24:55.317Z,10.27
2018-12-29T17:27:23.809Z,10.57
2018-12-29T17:29:52.441Z,10.80
2018-12-29T17:32:20.897Z,10.00
2018-12-29T17:34:49.351Z,10.90
2018-12-29T17:37:17.848Z,10.20
2018-12-29T17:39:46.377Z,10.40
2018-12-29T17:42:14.899Z,9.73
2018-12-29T17:44:43.415Z,10.30
2018-12-29T17:47:11.850Z,10.90
2018-12-29T17:49:40.297Z,9.90
2018-12-29T17:52:08.776Z,10.13
2018-12-29T17:54:37.223Z,11.07
2018-12-29T17:57:07.867Z,9.40
2018-12-29T17:59:36.341Z,10.87
2018-12-29T18:02:04.835Z,12.57
2018-12-29T18:04:33.562Z,13.20
2018-12-29T18:07:02.018Z,18.23
2018-12-29T18:09:30.484Z,13.40
2018-12-29T18:11:59.032Z,11.97
2018-12-29T18:14:27.562Z,25.33
2018-12-29T18:16:56.058Z,10.07
2018-12-29T18:19:30.545Z,8.63
2018-12-29T18:21:54.722Z,9.93
2018-12-29T18:24:23.183Z,15.30
2018-12-29T18:26:51.764Z,8.73
2018-12-29T18:29:20.244Z,10.57
2018-12-29T18:31:48.898Z,8.70
2018-12-29T18:34:17.364Z,9.20
2018-12-29T18:36:45.811Z,9.27
2018-12-29T18:39:14.269Z,11.90
2018-12-29T18:41:42.741Z,10.80
2018-12-29T18:44:11.482Z,10.87
2018-12-29T18:46:39.985Z,10.60
2018-12-29T18:49:08.479Z,12.00
2018-12-29T18:51:37.713Z,10.93
2018-12-29T18:54:06.181Z,9.67
2018-12-29T18:56:34.627Z,15.27
2018-12-29T18:59:03.101Z,12.00
2018-12-29T19:01:31.547Z,11.77
2018-12-29T19:04:00.045Z,16.90
2018-12-29T19:06:28.493Z,11.23
2018-12-29T19:08:56.954Z,11.70
2018-12-29T19:11:25.611Z,11.83
2018-12-29T19:13:54.069Z,13.37
2018-12-29T19:16:22.540Z,12.20
2018-12-29T19:18:51.009Z,12.33
2018-12-29T19:21:21.236Z,13.67
2018-12-29T19:23:50.085Z,13.93
2018-12-29T19:26:18.904Z,13.13
2018-12-29T19:28:47.785Z,14.37
2018-12-29T19:31:16.636Z,13.07
2018-12-29T19:33:45.087Z,15.07
2018-12-29T19:36:13.574Z,14.53
2018-12-29T19:38:42.047Z,15.03
2018-12-29T19:41:10.977Z,14.90
2018-12-29T19:43:39.440Z,13.60
2018-12-29T19:46:08.375Z,15.77
2018-12-29T19:48:36.868Z,19.80
2018-12-29T19:51:05.328Z,16.53
2018-12-29T19:53:34.212Z,15.10
2018-12-29T19:56:02.665Z,17.43
2018-12-29T19:58:31.137Z,16.17
2018-12-29T20:00:59.602Z,16.57
2018-12-29T20:03:28.113Z,17.50
2018-12-29T20:05:56.545Z,16.43
2018-12-29T20:08:25.051Z,19.17
2018-12-29T20:10:53.526Z,17.30
2018-12-29T20:13:22.025Z,17.63
2018-12-29T20:15:50.579Z,15.90
2018-12-29T20:18:19.093Z,17.43
2018-12-29T20:20:47.568Z,16.47
2018-12-29T20:23:16.294Z,20.10
2018-12-29T20:25:44.788Z,16.40
2018-12-29T20:28:14.713Z,16.77
2018-12-29T20:30:43.294Z,16.40
2018-12-29T20:33:11.749Z,18.40
2018-12-29T20:35:40.616Z,17.80
2018-12-29T20:38:09.099Z,19.57
2018-12-29T20:40:37.582Z,15.87
2018-12-29T20:43:06.162Z,17.40
2018-12-29T20:45:34.608Z,16.10
2018-12-29T20:48:03.082Z,17.27
2018-12-29T20:50:31.563Z,18.73
2018-12-29T20:53:00.015Z,17.50
2018-12-29T20:55:28.504Z,16.50
2018-12-29T20:57:56.978Z,16.37
2018-12-29T21:00:25.476Z,16.13
2018-12-29T21:02:54.405Z,17.17
2018-12-29T21:05:22.889Z,17.80
2018-12-29T21:07:51.329Z,15.40
2018-12-29T21:10:19.822Z,19.20
2018-12-29T21:12:48.286Z,14.37
2018-12-29T21:15:16.776Z,14.43
2018-12-29T21:17:45.252Z,14.30
2018-12-29T21:20:17.428Z,15.27
2018-12-29T21:22:43.971Z,14.20
2018-12-29T21:25:12.458Z,14.17
2018-12-29T21:27:40.931Z,13.77
2018-12-29T21:30:09.694Z,14.07
2018-12-29T21:32:38.169Z,14.70
2018-12-29T21:35:06.655Z,14.90
2018-12-29T21:37:35.121Z,14.67
2018-12-29T21:40:04.756Z,13.27
2018-12-29T21:42:33.264Z,13.60
2018-12-29T21:45:01.739Z,11.63
2018-12-29T21:47:30.230Z,12.33
2018-12-29T21:49:58.707Z,11.53
2018-12-29T21:52:27.231Z,12.00
2018-12-29T21:54:55.711Z,11.87
2018-12-29T21:57:24.181Z,11.17
2018-12-29T21:59:52.642Z,11.87
2018-12-29T22:02:21.158Z,10.63
2018-12-29T22:04:49.614Z,11.67
2018-12-29T22:07:18.095Z,11.87
2018-12-29T22:09:46.539Z,11.73
2018-12-29T22:12:15.401Z,12.57
2018-12-29T22:14:43.859Z,12.07
2018-12-29T22:17:12.424Z,12.00
2018-12-29T22:19:40.886Z,11.33
2018-12-29T22:22:09.527Z,11.40
2018-12-29T22:24:37.995Z,13.03
2018-12-29T22:27:06.469Z,11.63
2018-12-29T22:29:34.963Z,13.93
2018-12-29T22:32:03.449Z,10.77
2018-12-29T22:34:31.905Z,10.90
2018-12-29T22:37:00.368Z,10.67
2018-12-29T22:39:29.222Z,11.93
2018-12-29T22:41:59.163Z,9.87
2018-12-29T22:44:27.838Z,10.67
2018-12-29T22:46:56.370Z,11.30
2018-12-29T22:49:24.769Z,9.57
2018-12-29T22:51:53.217Z,9.87
2018-12-29T22:54:21.703Z,10.17
2018-12-29T22:56:50.178Z,8.57
2018-12-29T22:59:18.630Z,13.43
2018-12-29T23:01:47.079Z,9.37
2018-12-29T23:04:15.605Z,9.33
2018-12-29T23:06:44.062Z,10.03
2018-12-29T23:09:12.897Z,9.70
2018-12-29T23:11:41.360Z,10.27
2018-12-29T23:14:09.861Z,10.80
2018-12-29T23:16:39.820Z,9.20
2018-12-29T23:19:08.306Z,10.30
2018-12-29T23:21:36.773Z,9.33
2018-12-29T23:24:05.606Z,10.10
2018-12-29T23:26:34.049Z,10.00
2018-12-29T23:29:02.546Z,9.50
2018-12-29T23:31:31.055Z,12.03
2018-12-29T23:33:59.543Z,9.63
2018-12-29T23:36:27.979Z,9.60
2018-12-29T23:38:56.460Z,8.83
2018-12-29T23:41:24.935Z,9.20
2018-12-29T23:43:53.888Z,9.50
2018-12-29T23:46:22.329Z,9.03
2018-12-29T23:48:50.786Z,9.23
2018-12-29T23:51:19.225Z,9.57
2018-12-29T23:53:47.684Z,8.90
2018-12-29T23:56:16.570Z,9.60
2018-12-29T23:58:45.429Z,9.30
